createdAt,value
2022-08-09T00:00:00.085Z,101189.91
2022-08-09T00:02:29.392Z,101208.78
2022-08-09T00:05:00.793Z,101206.75
2022-08-09T00:07:45.482Z,101204.88
2022-08-09T00:10:21.038Z,101200.84
2022-08-09T00:12:53.138Z,101191.97
2022-08-09T00:15:26.385Z,101188.03
2022-08-09T00:18:05.674Z,101201.75
2022-08-09T00:20:41.388Z,101188.19
2022-08-09T00:23:54.835Z,101197.53
2022-08-09T00:26:00.154Z,101193.44
2022-08-09T00:28:34.733Z,101182.56
2022-08-09T00:31:09.041Z,101190.13
2022-08-09T00:33:53.195Z,101186.53
2022-08-09T00:36:22.291Z,101185.44
2022-08-09T00:38:55.361Z,101187.16
2022-08-09T00:44:14.880Z,101171.22
2022-08-09T00:44:20.119Z,101181.97
2022-08-09T00:47:04.683Z,101189.03
2022-08-09T00:49:33.944Z,101182.59
2022-08-09T00:52:05.518Z,101178.97
2022-08-09T00:54:36.177Z,101188.72
2022-08-09T00:57:08.950Z,101182.44
2022-08-09T00:59:41.433Z,101179.47
2022-08-09T01:02:20.363Z,101181.66
2022-08-09T01:04:54.122Z,101189.16
2022-08-09T01:07:37.645Z,101187.44
2022-08-09T01:10:31.904Z,101188.31
2022-08-09T01:13:09.072Z,101183.63
2022-08-09T01:15:52.478Z,101199.19
2022-08-09T01:18:30.162Z,101169.88
2022-08-09T01:21:15.694Z,101180.63
2022-08-09T01:24:03.974Z,101179.06
2022-08-09T01:26:46.279Z,101183.72
2022-08-09T01:29:29.204Z,101177.38
2022-08-09T01:32:30.379Z,101181.81
2022-08-09T01:35:18.031Z,101182.25
2022-08-09T01:38:08.129Z,101178.97
2022-08-09T01:40:43.888Z,101185.09
2022-08-09T01:43:15.350Z,101181.84
2022-08-09T01:45:44.676Z,101191.66
2022-08-09T01:48:18.187Z,101180.59
2022-08-09T01:50:54.994Z,101187.78
2022-08-09T01:53:28.890Z,101182.84
2022-08-09T01:55:59.363Z,101169.25
2022-08-09T01:58:31.049Z,101184.44
2022-08-09T02:01:00.986Z,101176.09
2022-08-09T02:03:31.189Z,101184.03
2022-08-09T02:06:04.022Z,101175.97
2022-08-09T02:08:57.051Z,101184.88
2022-08-09T02:11:42.527Z,101150.03
2022-08-09T02:14:26.336Z,101192.13
2022-08-09T02:16:59.531Z,101188.19
2022-08-09T02:19:43.924Z,101186.28
2022-08-09T02:22:31.553Z,101171.22
2022-08-09T02:25:08.789Z,101193.03
2022-08-09T02:27:57.457Z,101194.88
2022-08-09T02:30:32.908Z,101195.88
2022-08-09T02:33:03.528Z,101202.94
2022-08-09T02:36:01.588Z,101201.28
2022-08-09T02:38:30.030Z,101165.50
2022-08-09T02:41:03.517Z,101199.28
2022-08-09T02:43:47.749Z,101197.84
2022-08-09T02:46:25.476Z,101198.94
2022-08-09T02:48:57.801Z,101193.22
2022-08-09T02:51:27.442Z,101193.75
2022-08-09T02:54:01.091Z,101179.28
2022-08-09T02:56:31.719Z,101193.38
2022-08-09T02:59:02.438Z,101194.63
2022-08-09T03:01:43.090Z,101191.03
2022-08-09T03:04:26.321Z,101194.88
2022-08-09T03:06:59.849Z,101181.75
2022-08-09T03:09:43.055Z,101207.44
2022-08-09T03:12:13.554Z,101186.59
2022-08-09T03:14:44.000Z,101196.38
2022-08-09T03:17:16.636Z,101200.41
2022-08-09T03:19:59.034Z,101190.31
2022-08-09T03:22:41.576Z,101199.41
2022-08-09T03:25:25.978Z,101199.03
2022-08-09T03:27:57.880Z,101205.53
2022-08-09T03:30:33.417Z,101195.31
2022-08-09T03:33:17.615Z,101205.53
2022-08-09T03:36:12.523Z,101200.91
2022-08-09T03:38:37.260Z,101213.09
2022-08-09T03:41:10.362Z,101208.66
2022-08-09T03:43:51.693Z,101219.53
2022-08-09T03:46:32.489Z,101221.09
2022-08-09T03:49:07.839Z,101223.38
2022-08-09T03:51:55.736Z,101228.38
2022-08-09T03:54:31.162Z,101215.97
2022-08-09T03:57:04.004Z,101221.00
2022-08-09T03:59:43.034Z,101223.16
2022-08-09T04:02:26.292Z,101227.81
2022-08-09T04:04:59.170Z,101217.53
2022-08-09T04:07:33.910Z,101230.28
2022-08-09T04:10:20.990Z,101235.69
2022-08-09T04:13:01.108Z,101232.78
2022-08-09T04:16:18.721Z,101239.13
2022-08-09T04:18:21.302Z,101231.97
2022-08-09T04:20:51.676Z,101235.78
2022-08-09T04:23:24.457Z,101247.22
2022-08-09T04:25:54.553Z,101249.50
2022-08-09T04:28:33.526Z,101252.00
2022-08-09T04:31:08.023Z,101249.50
2022-08-09T04:33:47.452Z,101244.84
2022-08-09T04:36:25.362Z,101250.38
2022-08-09T04:38:54.214Z,101255.72
2022-08-09T04:41:23.622Z,101247.72
2022-08-09T04:44:05.588Z,101264.91
2022-08-09T04:46:56.911Z,101247.84
2022-08-09T04:49:40.460Z,101258.94
2022-08-09T04:52:18.532Z,101267.63
2022-08-09T04:54:54.317Z,101270.88
2022-08-09T04:57:24.496Z,101268.69
2022-08-09T04:59:55.312Z,101276.94
2022-08-09T05:02:23.995Z,101282.19
2022-08-09T05:04:56.006Z,101259.53
2022-08-09T05:07:27.874Z,101268.91
2022-08-09T05:10:01.882Z,101269.13
2022-08-09T05:12:36.627Z,101277.59
2022-08-09T05:15:11.463Z,101280.19
2022-08-09T05:18:38.483Z,101283.13
2022-08-09T05:20:29.731Z,101290.19
2022-08-09T05:23:55.492Z,101296.75
2022-08-09T05:25:51.130Z,101287.41
2022-08-09T05:28:20.263Z,101282.50
2022-08-09T05:30:48.918Z,101262.91
2022-08-09T05:33:20.007Z,101298.97
2022-08-09T05:35:54.563Z,101291.38
2022-08-09T05:38:26.506Z,101264.91
2022-08-09T05:40:56.005Z,101292.84
2022-08-09T05:43:23.864Z,101298.88
2022-08-09T05:45:57.961Z,101299.63
2022-08-09T05:48:27.886Z,101294.72
2022-08-09T05:51:43.154Z,101300.81
2022-08-09T05:53:56.901Z,101308.22
2022-08-09T05:56:27.253Z,101308.91
2022-08-09T05:58:58.245Z,101306.13
2022-08-09T06:01:27.194Z,101300.88
2022-08-09T06:04:05.801Z,101292.38
2022-08-09T06:06:34.980Z,101294.50
2022-08-09T06:09:05.475Z,101313.66
2022-08-09T06:11:41.256Z,101305.88
2022-08-09T06:14:26.429Z,101311.91
2022-08-09T06:16:57.382Z,101325.25
2022-08-09T06:19:25.421Z,101324.56
2022-08-09T06:21:58.327Z,101331.88
2022-08-09T06:24:28.516Z,101323.84
2022-08-09T06:26:57.297Z,101328.09
2022-08-09T06:29:26.835Z,101315.72
2022-08-09T06:32:08.414Z,101341.97
2022-08-09T06:34:37.807Z,101333.28
2022-08-09T06:37:06.602Z,101339.44
2022-08-09T06:39:58.130Z,101340.13
2022-08-09T06:42:30.518Z,101316.84
2022-08-09T06:44:59.292Z,101332.88
2022-08-09T06:47:30.318Z,101345.06
2022-08-09T06:50:13.664Z,101317.28
2022-08-09T06:52:48.456Z,101341.78
2022-08-09T06:55:23.315Z,101337.44
2022-08-09T06:58:01.574Z,101337.47
2022-08-09T07:00:49.653Z,101329.88
2022-08-09T07:03:27.893Z,101343.00
2022-08-09T07:06:02.562Z,101344.19
2022-08-09T07:08:32.869Z,101349.00
2022-08-09T07:11:04.251Z,101345.81
2022-08-09T07:13:45.160Z,101338.97
2022-08-09T07:16:41.123Z,101314.75
2022-08-09T07:19:15.012Z,101339.47
2022-08-09T07:21:55.273Z,101330.81
2022-08-09T07:24:32.407Z,101336.97
2022-08-09T07:27:27.343Z,101335.38
2022-08-09T07:29:59.798Z,101333.75
2022-08-09T07:32:33.680Z,101333.50
2022-08-09T07:35:08.118Z,101359.06
2022-08-09T07:37:43.698Z,101349.94
2022-08-09T07:40:17.166Z,101344.44
2022-08-09T07:42:54.395Z,101336.44
2022-08-09T07:45:37.412Z,101346.97
2022-08-09T07:48:25.604Z,101346.78
2022-08-09T07:51:09.351Z,101335.69
2022-08-09T07:54:04.863Z,101341.84
2022-08-09T07:56:34.487Z,101330.50
2022-08-09T07:59:15.923Z,101349.84
2022-08-09T08:01:56.308Z,101342.41
2022-08-09T08:04:25.440Z,101339.63
2022-08-09T08:07:15.394Z,101333.81
2022-08-09T08:09:55.236Z,101342.97
2022-08-09T08:12:46.426Z,101340.97
2022-08-09T08:15:18.265Z,101338.44
2022-08-09T08:17:57.887Z,101339.50
2022-08-09T08:20:32.316Z,101340.91
2022-08-09T08:23:06.911Z,101339.44
2022-08-09T08:25:48.186Z,101334.72
2022-08-09T08:28:25.713Z,101327.13
2022-08-09T08:31:10.633Z,101327.91
2022-08-09T08:33:52.219Z,101298.53
2022-08-09T08:36:28.985Z,101333.09
2022-08-09T08:38:57.919Z,101331.16
2022-08-09T08:41:38.701Z,101321.75
2022-08-09T08:44:15.574Z,101334.22
2022-08-09T08:47:03.191Z,101325.38
2022-08-09T08:49:46.979Z,101331.34
2022-08-09T08:55:07.517Z,101327.53
2022-08-09T08:57:37.565Z,101313.31
2022-08-09T09:00:16.951Z,101325.38
2022-08-09T09:03:04.421Z,101317.06
2022-08-09T09:05:58.238Z,101330.91
2022-08-09T09:08:31.876Z,101326.09
2022-08-09T09:11:04.130Z,101323.59
2022-08-09T09:13:47.334Z,101316.50
2022-08-09T09:16:30.557Z,101300.69
2022-08-09T09:19:37.389Z,101325.19
2022-08-09T09:22:04.361Z,101314.25
2022-08-09T09:24:35.022Z,101314.13
2022-08-09T09:27:07.575Z,101311.03
2022-08-09T09:30:11.078Z,101316.22
2022-08-09T09:32:34.385Z,101313.06
2022-08-09T09:35:07.531Z,101288.50
2022-08-09T09:37:40.666Z,101305.75
2022-08-09T09:40:11.785Z,101293.97
2022-08-09T09:42:46.000Z,101307.75
2022-08-09T09:45:26.398Z,101285.34
2022-08-09T09:47:58.804Z,101312.56
2022-08-09T09:50:49.434Z,101283.44
2022-08-09T09:53:21.278Z,101307.09
2022-08-09T09:56:04.257Z,101295.28
2022-08-09T09:58:46.434Z,101299.56
2022-08-09T10:01:31.278Z,101285.72
2022-08-09T10:04:16.009Z,101288.19
2022-08-09T10:06:54.451Z,101277.44
2022-08-09T10:09:24.070Z,101289.38
2022-08-09T10:12:14.302Z,101284.88
2022-08-09T10:14:49.315Z,101285.94
2022-08-09T10:17:50.945Z,101276.06
2022-08-09T10:20:27.788Z,101284.88
2022-08-09T10:23:17.315Z,101286.34
2022-08-09T10:26:06.183Z,101274.38
2022-08-09T10:28:37.859Z,101258.06
2022-08-09T10:34:10.655Z,101275.44
2022-08-09T10:36:45.418Z,101272.81
2022-08-09T10:39:18.443Z,101242.97
2022-08-09T10:41:48.299Z,101255.47
2022-08-09T10:44:19.263Z,101243.38
2022-08-09T10:48:19.203Z,101258.88
2022-08-09T10:50:27.291Z,101256.41
2022-08-09T10:53:23.059Z,101255.88
2022-08-09T10:56:16.353Z,101259.97
2022-08-09T10:58:51.474Z,101255.44
2022-08-09T11:03:15.527Z,101233.50
2022-08-09T11:04:32.858Z,101242.97
2022-08-09T11:07:27.738Z,101239.38
2022-08-09T11:10:15.966Z,101235.81
2022-08-09T11:13:49.073Z,101227.72
2022-08-09T11:16:37.400Z,101232.63
2022-08-09T11:19:11.241Z,101227.75
2022-08-09T11:22:16.675Z,101238.03
2022-08-09T11:25:05.592Z,101237.66
2022-08-09T11:28:03.891Z,101243.31
2022-08-09T11:30:37.935Z,101233.81
2022-08-09T11:33:12.815Z,101221.88
2022-08-09T11:35:50.387Z,101219.38
2022-08-09T11:38:22.208Z,101206.88
2022-08-09T11:40:57.251Z,101222.34
2022-08-09T11:43:42.836Z,101226.22
2022-08-09T11:46:12.523Z,101229.38
2022-08-09T11:48:53.934Z,101224.59
2022-08-09T11:53:02.583Z,101224.19
2022-08-09T11:54:28.246Z,101218.88
2022-08-09T11:57:59.830Z,101226.28
2022-08-09T12:00:30.946Z,101222.00
2022-08-09T12:03:31.766Z,101221.38
2022-08-09T12:05:52.497Z,101209.03
2022-08-09T12:08:22.950Z,101224.31
2022-08-09T12:10:55.209Z,101217.38
2022-08-09T12:14:09.317Z,101209.78
2022-08-09T12:16:30.712Z,101202.72
2022-08-09T12:19:09.616Z,101205.88
2022-08-09T12:21:48.715Z,101209.50
2022-08-09T12:24:24.985Z,101216.03
2022-08-09T12:29:10.128Z,101199.91
2022-08-09T12:30:01.478Z,101189.94
2022-08-09T12:32:45.273Z,101196.50
2022-08-09T12:35:21.558Z,101191.91
2022-08-09T12:37:52.595Z,101203.25
2022-08-09T12:40:26.835Z,101192.09
2022-08-09T12:42:55.758Z,101181.31
2022-08-09T12:45:33.387Z,101164.34
2022-08-09T12:48:03.886Z,101169.28
2022-08-09T12:50:35.760Z,101181.63
2022-08-09T12:53:08.975Z,101165.97
2022-08-09T12:56:15.994Z,101182.31
2022-08-09T12:58:35.155Z,101161.88
2022-08-09T13:01:28.310Z,101171.13
2022-08-09T13:04:02.454Z,101181.69
2022-08-09T13:06:34.478Z,101174.25
2022-08-09T13:09:11.426Z,101168.81
2022-08-09T13:11:43.077Z,101169.50
2022-08-09T13:14:43.009Z,101162.56
2022-08-09T13:17:03.457Z,101174.19
2022-08-09T13:20:08.588Z,101170.91
2022-08-09T13:22:35.374Z,101157.88
2022-08-09T13:25:07.560Z,101171.38
2022-08-09T13:27:40.007Z,101161.34
2022-08-09T13:31:11.632Z,101156.06
2022-08-09T13:33:11.975Z,101145.50
2022-08-09T13:36:38.708Z,101133.78
2022-08-09T13:38:55.039Z,101146.97
2022-08-09T13:41:59.017Z,101141.88
2022-08-09T13:44:16.770Z,101118.78
2022-08-09T13:47:27.118Z,101147.41
2022-08-09T13:49:39.602Z,101142.16
2022-08-09T13:52:22.764Z,101134.53
2022-08-09T13:55:00.373Z,101136.25
2022-08-09T13:57:35.982Z,101131.59
2022-08-09T14:00:08.532Z,101119.22
2022-08-09T14:02:42.227Z,101108.13
2022-08-09T14:05:56.744Z,101116.38
2022-08-09T14:08:12.620Z,101108.56
2022-08-09T14:10:52.444Z,101109.34
2022-08-09T14:14:15.857Z,101096.28
2022-08-09T14:16:13.817Z,101097.09
2022-08-09T14:18:45.864Z,101107.78
2022-08-09T14:21:18.676Z,101086.56
2022-08-09T14:23:54.760Z,101110.03
2022-08-09T14:26:31.899Z,101098.72
2022-08-09T14:29:03.723Z,101098.38
2022-08-09T14:31:49.959Z,101105.97
2022-08-09T14:34:27.450Z,101085.94
2022-08-09T14:36:59.982Z,101103.28
2022-08-09T14:39:45.597Z,101101.25
2022-08-09T14:42:30.332Z,101106.38
2022-08-09T14:46:39.731Z,101101.75
2022-08-09T14:47:58.609Z,101104.59
2022-08-09T14:50:31.194Z,101099.16
2022-08-09T14:53:00.288Z,101083.59
2022-08-09T14:55:29.094Z,101091.84
2022-08-09T14:58:03.230Z,101098.25
2022-08-09T15:00:33.329Z,101089.00
2022-08-09T15:03:03.608Z,101100.78
2022-08-09T15:05:32.916Z,101088.28
2022-08-09T15:08:01.697Z,101070.28
2022-08-09T15:10:31.645Z,101086.06
2022-08-09T15:13:03.135Z,101089.75
2022-08-09T15:15:34.371Z,101078.81
2022-08-09T15:18:08.230Z,101085.78
2022-08-09T15:21:54.685Z,101087.06
2022-08-09T15:24:01.831Z,101082.44
2022-08-09T15:26:18.922Z,101069.03
2022-08-09T15:29:04.826Z,101067.44
2022-08-09T15:31:41.411Z,101084.84
2022-08-09T15:34:33.247Z,101071.81
2022-08-09T15:37:23.734Z,101076.00
2022-08-09T15:39:55.120Z,101078.63
2022-08-09T15:42:23.841Z,101087.66
2022-08-09T15:44:58.283Z,101083.19
2022-08-09T15:47:47.102Z,101065.84
2022-08-09T15:50:16.790Z,101053.31
2022-08-09T15:52:55.030Z,101068.00
2022-08-09T15:56:04.357Z,101074.28
2022-08-09T15:58:27.220Z,101073.59
2022-08-09T16:00:57.045Z,101070.97
2022-08-09T16:03:26.633Z,101072.66
2022-08-09T16:06:07.166Z,101074.53
2022-08-09T16:08:56.049Z,101066.03
2022-08-09T16:11:24.287Z,101048.63
2022-08-09T16:14:03.637Z,101066.28
2022-08-09T16:16:38.029Z,101066.94
2022-08-09T16:19:10.909Z,101052.78
2022-08-09T16:21:48.483Z,101063.19
2022-08-09T16:24:33.540Z,101044.53
2022-08-09T16:27:02.742Z,101074.34
2022-08-09T16:29:37.722Z,101060.19
2022-08-09T16:32:34.208Z,101068.44
2022-08-09T16:35:11.230Z,101073.06
2022-08-09T16:37:55.257Z,101052.66
2022-08-09T16:40:40.434Z,101077.53
2022-08-09T16:43:09.433Z,101073.91
2022-08-09T16:45:44.064Z,101051.03
2022-08-09T16:48:40.192Z,101065.69
2022-08-09T16:51:07.422Z,101070.63
2022-08-09T16:53:35.789Z,101062.91
2022-08-09T16:56:10.003Z,101055.31
2022-08-09T16:58:39.587Z,101062.09
2022-08-09T17:01:11.455Z,101061.28
2022-08-09T17:03:41.557Z,101064.38
2022-08-09T17:06:31.289Z,101064.38
2022-08-09T17:09:12.172Z,101072.78
2022-08-09T17:11:47.980Z,101078.38
2022-08-09T17:14:27.363Z,101072.47
2022-08-09T17:16:59.826Z,101068.94
2022-08-09T17:20:12.614Z,101072.56
2022-08-09T17:22:24.760Z,101059.88
2022-08-09T17:25:09.888Z,101060.84
2022-08-09T17:27:49.179Z,101075.50
2022-08-09T17:30:22.081Z,101062.97
2022-08-09T17:32:57.470Z,101089.47
2022-08-09T17:35:31.161Z,101075.78
2022-08-09T17:38:02.293Z,101084.03
2022-08-09T17:40:46.316Z,101095.22
2022-08-09T17:43:33.891Z,101074.81
2022-08-09T17:46:06.845Z,101099.94
2022-08-09T17:48:38.845Z,101080.31
2022-08-09T17:51:18.062Z,101088.91
2022-08-09T17:53:53.469Z,101090.47
2022-08-09T17:56:27.233Z,101083.47
2022-08-09T17:58:59.659Z,101084.78
2022-08-09T18:01:40.696Z,101075.25
2022-08-09T18:04:17.728Z,101112.97
2022-08-09T18:06:49.960Z,101114.63
2022-08-09T18:09:24.783Z,101099.66
2022-08-09T18:12:05.152Z,101112.28
2022-08-09T18:14:49.889Z,101115.13
2022-08-09T18:18:02.828Z,101101.91
2022-08-09T18:21:00.240Z,101112.38
2022-08-09T18:23:05.019Z,101116.31
2022-08-09T18:25:52.428Z,101126.69
2022-08-09T18:30:42.198Z,101118.75
2022-08-09T18:31:11.433Z,101101.16
2022-08-09T18:33:40.329Z,101127.47
2022-08-09T18:36:14.381Z,101114.88
2022-08-09T18:39:01.933Z,101119.53
2022-08-09T18:41:34.945Z,101126.66
2022-08-09T18:44:13.295Z,101129.41
2022-08-09T18:46:51.309Z,101127.88
2022-08-09T18:49:32.067Z,101101.13
2022-08-09T18:52:00.371Z,101126.31
2022-08-09T18:54:30.430Z,101142.88
2022-08-09T18:57:05.954Z,101146.16
2022-08-09T18:59:49.047Z,101151.13
2022-08-09T19:02:20.061Z,101156.34
2022-08-09T19:05:04.103Z,101150.13
2022-08-09T19:07:36.933Z,101153.56
2022-08-09T19:10:14.781Z,101170.09
2022-08-09T19:12:55.545Z,101157.69
2022-08-09T19:15:34.603Z,101167.31
2022-08-09T19:18:02.726Z,101168.56
2022-08-09T19:20:38.848Z,101168.56
2022-08-09T19:23:07.955Z,101174.75
2022-08-09T19:26:01.255Z,101175.63
2022-08-09T19:28:28.915Z,101168.22
2022-08-09T19:30:56.897Z,101164.97
2022-08-09T19:33:25.107Z,101174.19
2022-08-09T19:35:57.033Z,101190.81
2022-08-09T19:38:25.712Z,101193.50
2022-08-09T19:40:57.540Z,101193.09
2022-08-09T19:44:00.940Z,101187.66
2022-08-09T19:46:16.400Z,101184.59
2022-08-09T19:50:09.024Z,101193.28
2022-08-09T19:51:55.741Z,101180.81
2022-08-09T19:54:25.111Z,101202.91
2022-08-09T19:56:54.906Z,101206.31
2022-08-09T19:59:57.983Z,101217.44
2022-08-09T20:02:18.317Z,101215.50
2022-08-09T20:05:01.195Z,101222.19
2022-08-09T20:07:56.733Z,101222.53
2022-08-09T20:10:22.503Z,101217.03
2022-08-09T20:13:04.779Z,101225.97
2022-08-09T20:16:34.846Z,101226.25
2022-08-09T20:18:22.211Z,101228.72
2022-08-09T20:20:55.331Z,101230.97
2022-08-09T20:23:23.918Z,101189.59
2022-08-09T20:26:06.825Z,101237.38
2022-08-09T20:28:47.851Z,101225.53
2022-08-09T20:31:18.195Z,101239.16
2022-08-09T20:33:46.618Z,101224.56
2022-08-09T20:36:20.468Z,101233.34
2022-08-09T20:41:37.761Z,101217.97
2022-08-09T20:44:10.614Z,101242.94
2022-08-09T20:46:44.388Z,101242.69
2022-08-09T20:49:13.696Z,101240.22
2022-08-09T20:51:42.411Z,101225.59
2022-08-09T20:54:16.764Z,101248.84
2022-08-09T20:56:47.054Z,101249.97
2022-08-09T20:59:49.981Z,101235.06
2022-08-09T21:02:09.335Z,101243.16
2022-08-09T21:05:56.531Z,101231.53
2022-08-09T21:07:38.498Z,101259.25
2022-08-09T21:10:09.463Z,101258.13
2022-08-09T21:12:40.109Z,101254.25
2022-08-09T21:15:12.752Z,101238.50
2022-08-09T21:18:23.094Z,101253.75
2022-08-09T21:20:30.216Z,101257.09
2022-08-09T21:22:59.274Z,101259.28
2022-08-09T21:25:56.018Z,101259.31
2022-08-09T21:28:34.470Z,101260.69
2022-08-09T21:31:17.803Z,101263.75
2022-08-09T21:33:51.019Z,101233.59
2022-08-09T21:36:27.816Z,101259.34
2022-08-09T21:38:59.184Z,101265.41
2022-08-09T21:42:04.927Z,101259.03
2022-08-09T21:44:35.185Z,101267.84
2022-08-09T21:47:09.206Z,101268.44
2022-08-09T21:49:40.126Z,101271.44
2022-08-09T21:52:16.620Z,101276.16
2022-08-09T21:55:03.122Z,101277.78
2022-08-09T21:57:38.816Z,101263.94
2022-08-09T22:00:26.016Z,101271.97
2022-08-09T22:02:59.312Z,101261.66
2022-08-09T22:05:36.921Z,101261.34
2022-08-09T22:08:12.993Z,101271.56
2022-08-09T22:11:04.794Z,101274.88
2022-08-09T22:13:31.416Z,101276.28
2022-08-09T22:16:03.911Z,101281.22
2022-08-09T22:18:33.429Z,101275.34
2022-08-09T22:21:01.406Z,101278.41
2022-08-09T22:23:35.490Z,101298.59
2022-08-09T22:26:34.443Z,101288.28
2022-08-09T22:29:07.706Z,101290.75
2022-08-09T22:31:50.632Z,101288.53
2022-08-09T22:34:27.562Z,101298.94
2022-08-09T22:36:55.759Z,101294.00
2022-08-09T22:39:55.202Z,101291.50
2022-08-09T22:42:22.152Z,101289.56
2022-08-09T22:45:00.510Z,101284.31
2022-08-09T22:48:14.398Z,101284.53
2022-08-09T22:50:30.010Z,101288.41
2022-08-09T22:52:58.754Z,101287.03
2022-08-09T22:55:39.612Z,101284.84
2022-08-09T22:58:30.906Z,101291.44
2022-08-09T23:01:02.148Z,101293.78
2022-08-09T23:04:02.420Z,101302.13
2022-08-09T23:06:34.853Z,101294.94
2022-08-09T23:09:05.512Z,101283.22
2022-08-09T23:11:34.331Z,101298.78
2022-08-09T23:14:03.315Z,101307.06
2022-08-09T23:16:32.920Z,101279.28
2022-08-09T23:19:01.177Z,101280.38
2022-08-09T23:21:33.555Z,101297.59
2022-08-09T23:24:06.834Z,101303.94
2022-08-09T23:26:35.610Z,101274.81
2022-08-09T23:29:03.536Z,101270.38
2022-08-09T23:31:31.481Z,101296.19
2022-08-09T23:33:59.383Z,101303.97
2022-08-09T23:36:30.277Z,101294.56
2022-08-09T23:38:58.506Z,101301.44
2022-08-09T23:41:28.719Z,101300.25
2022-08-09T23:43:58.593Z,101291.00
2022-08-09T23:46:26.867Z,101294.41
2022-08-09T23:48:54.841Z,101295.81
2022-08-09T23:51:23.458Z,101297.38
2022-08-09T23:53:55.469Z,101300.41
2022-08-09T23:56:53.147Z,101282.63
2022-08-09T23:59:18.523Z,101297.28
